createdAt,value
2018-02-21T00:02:06.265Z,90.40
2018-02-21T00:04:33.809Z,89.30
2018-02-21T00:07:01.425Z,89.60
2018-02-21T00:09:29.076Z,88.90
2018-02-21T00:11:56.629Z,89.90
2018-02-21T00:14:24.188Z,89.00
2018-02-21T00:16:51.742Z,90.10
2018-02-21T00:19:19.315Z,90.30
2018-02-21T00:21:46.864Z,88.30
2018-02-21T00:24:14.419Z,88.10
2018-02-21T00:26:41.962Z,87.90
2018-02-21T00:29:09.508Z,88.20
2018-02-21T00:31:37.831Z,90.20
2018-02-21T00:34:05.475Z,90.10
2018-02-21T00:36:33.049Z,91.70
2018-02-21T00:39:00.615Z,91.30
2018-02-21T00:41:28.175Z,91.40
2018-02-21T00:43:55.727Z,91.00
2018-02-21T00:46:23.293Z,91.00
2018-02-21T00:48:50.854Z,91.60
2018-02-21T00:51:18.397Z,91.40
2018-02-21T00:53:45.972Z,91.60
2018-02-21T00:56:13.631Z,91.50
2018-02-21T00:58:41.190Z,91.10
2018-02-21T01:01:09.405Z,90.10
2018-02-21T01:03:37.027Z,89.80
2018-02-21T01:06:04.593Z,89.00
2018-02-21T01:08:32.258Z,91.10
2018-02-21T01:10:59.802Z,90.70
2018-02-21T01:13:27.372Z,91.80
2018-02-21T01:15:54.931Z,92.50
2018-02-21T01:18:22.488Z,90.70
2018-02-21T01:20:50.051Z,90.90
2018-02-21T01:23:17.701Z,91.50
2018-02-21T01:25:45.250Z,92.10
2018-02-21T01:28:12.787Z,90.90
2018-02-21T01:30:41.223Z,89.40
2018-02-21T01:33:08.766Z,89.40
2018-02-21T01:35:36.328Z,89.30
2018-02-21T01:38:03.918Z,89.40
2018-02-21T01:40:31.489Z,89.80
2018-02-21T01:42:59.053Z,91.20
2018-02-21T01:45:28.120Z,93.50
2018-02-21T01:47:56.443Z,92.80
2018-02-21T01:50:24.853Z,91.70
2018-02-21T01:52:52.414Z,91.70
2018-02-21T01:55:19.970Z,92.30
2018-02-21T01:57:47.544Z,92.50
2018-02-21T02:00:15.096Z,92.20
2018-02-21T02:02:42.649Z,93.10
2018-02-21T02:05:10.188Z,93.40
2018-02-21T02:07:38.611Z,92.40
2018-02-21T02:10:06.175Z,92.40
2018-02-21T02:12:33.734Z,92.70
2018-02-21T02:15:01.287Z,92.10
2018-02-21T02:17:28.841Z,93.90
2018-02-21T02:19:56.397Z,94.10
2018-02-21T02:22:24.086Z,94.40
2018-02-21T02:24:51.744Z,94.20
2018-02-21T02:27:19.309Z,93.40
2018-02-21T02:29:46.869Z,92.50
2018-02-21T02:32:14.537Z,92.50
2018-02-21T02:34:42.108Z,91.60
2018-02-21T02:37:09.683Z,91.50
2018-02-21T02:39:50.982Z,92.50
2018-02-21T02:42:18.546Z,92.50
2018-02-21T02:44:46.097Z,92.10
2018-02-21T02:47:14.405Z,91.90
2018-02-21T02:49:41.961Z,91.80
2018-02-21T02:52:09.502Z,93.20
2018-02-21T02:54:37.047Z,94.40
2018-02-21T02:57:05.388Z,94.70
2018-02-21T02:59:33.045Z,94.00
2018-02-21T03:02:00.714Z,94.70
2018-02-21T03:04:28.297Z,94.90
2018-02-21T03:06:56.615Z,95.70
2018-02-21T03:09:24.167Z,95.20
2018-02-21T03:11:51.727Z,93.90
2018-02-21T03:14:19.327Z,94.50
2018-02-21T03:16:46.878Z,93.80
2018-02-21T03:19:14.440Z,93.50
2018-02-21T03:21:41.978Z,93.50
2018-02-21T03:24:09.562Z,93.20
2018-02-21T03:26:37.127Z,93.90
2018-02-21T03:29:04.779Z,93.30
2018-02-21T03:31:32.328Z,94.50
2018-02-21T03:33:59.884Z,95.60
2018-02-21T03:36:27.440Z,96.00
2018-02-21T03:38:54.993Z,96.80
2018-02-21T03:41:22.569Z,96.10
2018-02-21T03:43:50.117Z,94.40
2018-02-21T03:46:17.666Z,93.30
2018-02-21T03:48:45.235Z,93.10
2018-02-21T03:51:12.791Z,92.50
2018-02-21T03:53:40.331Z,93.30
2018-02-21T03:56:08.766Z,93.40
2018-02-21T03:58:36.439Z,93.40
2018-02-21T04:01:04.019Z,94.00
2018-02-21T04:03:31.598Z,94.60
2018-02-21T04:05:59.901Z,95.40
2018-02-21T04:08:27.439Z,95.30
2018-02-21T04:10:55.764Z,93.90
2018-02-21T04:13:23.318Z,93.90
2018-02-21T04:15:50.852Z,93.70
2018-02-21T04:18:18.453Z,93.90
2018-02-21T04:20:46.099Z,95.50
2018-02-21T04:23:13.636Z,96.30
2018-02-21T04:25:41.211Z,96.30
2018-02-21T04:28:08.766Z,94.50
2018-02-21T04:30:36.332Z,93.30
2018-02-21T04:33:03.907Z,94.30
2018-02-21T04:35:31.463Z,94.30
2018-02-21T04:37:59.030Z,93.90
2018-02-21T04:40:26.612Z,94.60
2018-02-21T04:42:54.274Z,97.10
2018-02-21T04:45:21.820Z,95.90
2018-02-21T04:47:49.475Z,94.00
2018-02-21T04:50:17.014Z,93.00
2018-02-21T04:52:44.563Z,92.70
2018-02-21T04:55:27.956Z,90.90
2018-02-21T04:57:56.959Z,91.40
2018-02-21T05:00:25.289Z,92.80
2018-02-21T05:02:52.838Z,92.80
2018-02-21T05:05:20.410Z,92.80
2018-02-21T05:07:47.965Z,93.30
2018-02-21T05:10:15.540Z,93.80
2018-02-21T05:12:43.072Z,94.30
2018-02-21T05:15:10.620Z,94.20
2018-02-21T05:17:38.457Z,93.90
2018-02-21T05:20:06.769Z,94.00
2018-02-21T05:22:34.360Z,94.00
2018-02-21T05:25:02.015Z,93.90
2018-02-21T05:27:29.568Z,93.80
2018-02-21T05:29:57.108Z,93.20
2018-02-21T05:32:24.675Z,94.10
2018-02-21T05:34:52.265Z,93.70
2018-02-21T05:37:19.823Z,94.80
2018-02-21T05:39:47.394Z,94.70
2018-02-21T05:42:15.043Z,97.00
2018-02-21T05:44:42.590Z,95.60
2018-02-21T05:47:10.265Z,95.70
2018-02-21T05:49:37.810Z,94.80
2018-02-21T05:52:05.346Z,94.40
2018-02-21T05:54:32.938Z,94.20
2018-02-21T05:57:00.492Z,94.50
2018-02-21T05:59:28.062Z,94.90
2018-02-21T06:01:55.631Z,94.60
2018-02-21T06:04:23.283Z,95.40
2018-02-21T06:06:50.860Z,95.70
2018-02-21T06:09:18.421Z,95.40
2018-02-21T06:11:45.974Z,96.80
2018-02-21T06:14:13.532Z,96.80
2018-02-21T06:16:41.094Z,97.30
2018-02-21T06:19:08.633Z,97.60
2018-02-21T06:21:36.189Z,97.30
2018-02-21T06:24:03.740Z,97.00
2018-02-21T06:26:31.332Z,97.00
2018-02-21T06:28:58.888Z,96.40
2018-02-21T06:31:26.452Z,97.10
2018-02-21T06:33:54.140Z,96.50
2018-02-21T06:36:21.699Z,95.70
2018-02-21T06:38:49.279Z,96.40
2018-02-21T06:41:17.597Z,95.90
2018-02-21T06:43:45.151Z,95.90
2018-02-21T06:46:12.701Z,96.00
2018-02-21T06:48:40.257Z,95.70
2018-02-21T06:51:07.861Z,96.00
2018-02-21T06:53:35.419Z,96.40
2018-02-21T06:56:02.964Z,96.90
2018-02-21T06:58:30.519Z,97.30
2018-02-21T07:00:58.097Z,98.00
2018-02-21T07:03:25.663Z,99.90
2018-02-21T07:05:53.214Z,99.90
2018-02-21T07:08:20.779Z,78.20
2018-02-21T07:10:48.344Z,62.80
2018-02-21T07:13:15.993Z,57.80
2018-02-21T07:15:43.691Z,54.50
2018-02-21T07:18:11.315Z,56.30
2018-02-21T07:20:38.929Z,79.50
2018-02-21T07:23:06.460Z,90.10
2018-02-21T07:25:34.020Z,93.40
2018-02-21T07:28:01.606Z,95.90
2018-02-21T07:30:30.048Z,98.50
2018-02-21T07:32:57.604Z,98.50
2018-02-21T07:35:25.266Z,99.30
2018-02-21T07:37:52.838Z,98.10
2018-02-21T07:40:20.388Z,95.30
2018-02-21T07:42:47.978Z,97.60
2018-02-21T07:45:15.619Z,97.90
2018-02-21T07:47:43.285Z,98.80
2018-02-21T07:50:10.825Z,98.70
2018-02-21T07:52:38.378Z,99.90
2018-02-21T07:55:05.942Z,92.70
2018-02-21T07:57:33.490Z,93.70
2018-02-21T08:00:01.076Z,99.90
2018-02-21T08:02:28.623Z,95.50
2018-02-21T08:04:56.158Z,94.20
2018-02-21T08:07:23.720Z,89.40
2018-02-21T08:09:51.269Z,90.80
2018-02-21T08:12:18.796Z,91.70
2018-02-21T08:14:47.849Z,89.40
2018-02-21T08:17:15.418Z,88.80
2018-02-21T08:19:42.964Z,83.70
2018-02-21T08:22:10.538Z,92.00
2018-02-21T08:24:38.069Z,90.90
2018-02-21T08:27:05.607Z,93.20
2018-02-21T08:29:33.921Z,86.40
2018-02-21T08:32:01.499Z,86.30
2018-02-21T08:34:29.043Z,85.00
2018-02-21T08:36:56.609Z,97.70
2018-02-21T08:39:24.178Z,69.70
2018-02-21T08:41:51.736Z,63.40
2018-02-21T08:44:19.282Z,80.70
2018-02-21T08:46:46.860Z,99.90
2018-02-21T08:49:14.402Z,87.30
2018-02-21T08:51:42.083Z,84.60
2018-02-21T08:54:09.764Z,76.50
2018-02-21T08:56:37.312Z,68.30
2018-02-21T08:59:04.958Z,68.10
2018-02-21T09:01:32.511Z,66.70
2018-02-21T09:04:00.077Z,79.40
2018-02-21T09:06:27.640Z,81.70
2018-02-21T09:08:55.954Z,90.10
2018-02-21T09:11:23.602Z,89.40
2018-02-21T09:13:51.163Z,89.00
2018-02-21T09:16:18.818Z,82.70
2018-02-21T09:18:46.362Z,78.70
2018-02-21T09:21:13.932Z,93.90
2018-02-21T09:23:41.476Z,73.00
2018-02-21T09:26:09.032Z,77.20
2018-02-21T09:28:36.631Z,82.70
2018-02-21T09:31:04.278Z,98.70
2018-02-21T09:33:31.939Z,79.20
2018-02-21T09:35:59.604Z,92.50
2018-02-21T09:38:27.136Z,61.80
2018-02-21T09:40:55.536Z,78.30
2018-02-21T09:43:23.083Z,78.30
2018-02-21T09:45:50.662Z,83.40
2018-02-21T09:48:18.320Z,91.20
2018-02-21T09:50:45.879Z,79.40
2018-02-21T09:53:13.422Z,81.70
2018-02-21T09:55:41.004Z,87.80
2018-02-21T09:58:08.671Z,87.20
2018-02-21T10:00:36.324Z,75.50
2018-02-21T10:03:03.869Z,87.10
2018-02-21T10:05:31.424Z,71.30
2018-02-21T10:07:58.958Z,76.00
2018-02-21T10:10:27.264Z,74.80
2018-02-21T10:12:54.804Z,74.30
2018-02-21T10:15:22.357Z,68.60
2018-02-21T10:17:50.674Z,79.10
2018-02-21T10:20:19.095Z,71.60
2018-02-21T10:22:46.648Z,71.50
2018-02-21T10:25:14.287Z,73.00
2018-02-21T10:27:41.940Z,82.60
2018-02-21T10:30:11.007Z,79.00
2018-02-21T10:32:38.565Z,79.30
2018-02-21T10:35:06.140Z,78.30
2018-02-21T10:37:33.712Z,76.00
2018-02-21T10:40:01.248Z,72.20
2018-02-21T10:42:28.836Z,74.50
2018-02-21T10:44:56.370Z,85.50
2018-02-21T10:47:23.958Z,75.90
2018-02-21T10:49:51.532Z,77.40
2018-02-21T10:52:19.070Z,75.70
2018-02-21T10:54:46.652Z,66.20
2018-02-21T10:57:14.233Z,74.00
2018-02-21T10:59:42.556Z,69.80
2018-02-21T11:02:10.103Z,69.80
2018-02-21T11:04:37.699Z,56.80
2018-02-21T11:07:05.262Z,61.20
2018-02-21T11:09:32.839Z,71.80
2018-02-21T11:12:00.408Z,63.40
2018-02-21T11:14:28.040Z,53.00
2018-02-21T11:16:55.610Z,60.00
2018-02-21T11:19:23.184Z,50.40
2018-02-21T11:21:50.738Z,59.00
2018-02-21T11:24:18.409Z,56.70
2018-02-21T11:26:45.981Z,64.20
2018-02-21T11:29:14.331Z,58.10
2018-02-21T11:31:41.896Z,58.00
2018-02-21T11:34:09.557Z,71.60
2018-02-21T11:36:37.122Z,56.20
2018-02-21T11:39:04.677Z,68.30
2018-02-21T11:41:33.054Z,56.80
2018-02-21T11:44:00.614Z,56.30
2018-02-21T11:46:28.168Z,57.70
2018-02-21T11:48:55.725Z,53.50
2018-02-21T11:51:23.266Z,59.40
2018-02-21T11:53:50.820Z,53.30
2018-02-21T11:56:18.394Z,51.70
2018-02-21T11:58:45.950Z,49.70
2018-02-21T12:01:13.493Z,43.60
2018-02-21T12:03:41.060Z,57.80
2018-02-21T12:06:08.611Z,57.00
2018-02-21T12:08:36.215Z,52.60
2018-02-21T12:11:03.782Z,54.40
2018-02-21T12:13:31.433Z,53.80
2018-02-21T12:15:58.996Z,58.60
2018-02-21T12:18:26.574Z,51.40
2018-02-21T12:20:54.122Z,52.00
2018-02-21T12:23:21.788Z,48.80
2018-02-21T12:25:49.368Z,59.80
2018-02-21T12:28:17.682Z,46.30
2018-02-21T12:30:45.252Z,45.60
2018-02-21T12:33:12.844Z,49.70
2018-02-21T12:35:40.507Z,55.60
2018-02-21T12:38:08.814Z,49.90
2018-02-21T12:40:42.949Z,45.70
2018-02-21T12:43:10.499Z,45.60
2018-02-21T12:45:38.813Z,40.50
2018-02-21T12:48:06.420Z,40.50
2018-02-21T12:50:34.765Z,50.40
2018-02-21T12:53:02.327Z,49.60
2018-02-21T12:55:29.952Z,45.40
2018-02-21T12:57:57.476Z,41.70
2018-02-21T13:00:25.126Z,45.10
2018-02-21T13:02:52.705Z,48.90
2018-02-21T13:05:21.004Z,45.80
2018-02-21T13:07:48.560Z,45.90
2018-02-21T13:10:16.127Z,51.20
2018-02-21T13:12:43.678Z,44.10
2018-02-21T13:15:12.109Z,41.30
2018-02-21T13:17:39.760Z,41.30
2018-02-21T13:20:07.306Z,49.20
2018-02-21T13:22:34.877Z,52.90
2018-02-21T13:25:02.551Z,43.90
2018-02-21T13:27:30.184Z,42.50
2018-02-21T13:29:57.727Z,42.90
2018-02-21T13:32:25.293Z,43.90
2018-02-21T13:34:52.853Z,50.50
2018-02-21T13:37:20.466Z,47.30
2018-02-21T13:39:48.116Z,49.70
2018-02-21T13:42:15.680Z,39.30
2018-02-21T13:44:43.247Z,46.40
2018-02-21T13:47:11.080Z,48.90
2018-02-21T13:49:39.420Z,43.00
2018-02-21T13:52:07.744Z,45.80
2018-02-21T13:54:35.420Z,46.10
2018-02-21T13:57:03.038Z,45.10
2018-02-21T13:59:30.649Z,38.30
2018-02-21T14:01:58.198Z,37.60
2018-02-21T14:04:25.746Z,43.10
2018-02-21T14:06:53.299Z,39.40
2018-02-21T14:09:20.864Z,41.00
2018-02-21T14:11:48.422Z,42.90
2018-02-21T14:14:15.980Z,41.20
2018-02-21T14:16:43.567Z,44.30
2018-02-21T14:19:11.123Z,44.40
2018-02-21T14:21:38.780Z,38.70
2018-02-21T14:24:06.350Z,43.00
2018-02-21T14:26:33.912Z,42.30
2018-02-21T14:29:01.463Z,42.90
2018-02-21T14:31:29.022Z,45.40
2018-02-21T14:33:56.569Z,49.00
2018-02-21T14:36:24.144Z,46.20
2018-02-21T14:38:51.691Z,43.90
2018-02-21T14:41:19.274Z,42.20
2018-02-21T14:43:46.933Z,44.90
2018-02-21T14:46:14.485Z,53.40
2018-02-21T14:48:42.027Z,43.00
2018-02-21T14:51:09.609Z,46.50
2018-02-21T14:53:37.178Z,42.30
2018-02-21T14:56:04.726Z,40.40
2018-02-21T14:58:32.280Z,44.20
2018-02-21T15:00:59.878Z,47.90
2018-02-21T15:03:27.430Z,47.00
2018-02-21T15:05:55.057Z,47.80
2018-02-21T15:08:22.614Z,43.10
2018-02-21T15:10:50.153Z,47.20
2018-02-21T15:13:17.706Z,44.90
2018-02-21T15:15:46.046Z,43.90
2018-02-21T15:18:13.584Z,43.80
2018-02-21T15:20:41.149Z,45.90
2018-02-21T15:23:08.727Z,44.20
2018-02-21T15:25:36.374Z,53.20
2018-02-21T15:28:03.934Z,41.50
2018-02-21T15:30:31.501Z,48.90
2018-02-21T15:32:59.054Z,42.20
2018-02-21T15:35:26.598Z,44.60
2018-02-21T15:37:54.163Z,46.00
2018-02-21T15:40:21.715Z,40.90
2018-02-21T15:42:49.287Z,40.00
2018-02-21T15:45:16.895Z,43.30
2018-02-21T15:47:44.426Z,44.80
2018-02-21T15:50:13.002Z,51.00
2018-02-21T15:52:40.563Z,44.10
2018-02-21T15:55:08.094Z,52.30
2018-02-21T15:57:35.673Z,41.00
2018-02-21T16:00:03.240Z,40.60
2018-02-21T16:02:30.895Z,49.80
2018-02-21T16:04:58.452Z,46.10
2018-02-21T16:07:25.995Z,44.80
2018-02-21T16:09:53.573Z,49.60
2018-02-21T16:12:21.106Z,46.40
2018-02-21T16:14:48.673Z,57.30
2018-02-21T16:17:17.107Z,48.10
2018-02-21T16:19:44.653Z,48.90
2018-02-21T16:22:12.304Z,50.40
2018-02-21T16:24:39.850Z,59.80
2018-02-21T16:27:07.415Z,48.70
2018-02-21T16:29:35.084Z,50.00
2018-02-21T16:32:02.622Z,54.70
2018-02-21T16:34:30.159Z,53.90
2018-02-21T16:36:57.721Z,56.50
2018-02-21T16:39:25.324Z,57.00
2018-02-21T16:41:52.873Z,58.40
2018-02-21T16:44:20.430Z,61.10
2018-02-21T16:46:47.982Z,57.20
2018-02-21T16:49:15.560Z,59.40
2018-02-21T16:51:43.233Z,57.80
2018-02-21T16:54:26.506Z,58.80
2018-02-21T16:56:54.819Z,57.80
2018-02-21T16:59:22.365Z,57.70
2018-02-21T17:01:49.950Z,59.10
2018-02-21T17:04:17.602Z,59.10
2018-02-21T17:06:45.154Z,59.00
2018-02-21T17:09:12.725Z,58.70
2018-02-21T17:11:40.440Z,59.00
2018-02-21T17:14:08.779Z,59.30
2018-02-21T17:16:36.326Z,59.30
2018-02-21T17:19:03.896Z,59.50
2018-02-21T17:21:31.454Z,60.30
2018-02-21T17:23:59.099Z,60.30
2018-02-21T17:26:26.659Z,61.10
2018-02-21T17:28:54.206Z,61.10
2018-02-21T17:31:21.740Z,62.70
2018-02-21T17:33:50.081Z,62.50
2018-02-21T17:36:17.751Z,62.60
2018-02-21T17:38:45.293Z,62.60
2018-02-21T17:41:18.598Z,63.60
2018-02-21T17:43:46.151Z,62.00
2018-02-21T17:46:13.723Z,62.20
2018-02-21T17:48:41.287Z,63.70
2018-02-21T17:51:08.855Z,64.10
2018-02-21T17:53:36.423Z,63.50
2018-02-21T17:56:04.787Z,65.60
2018-02-21T17:58:32.334Z,65.60
2018-02-21T18:00:59.896Z,66.00
2018-02-21T18:03:27.480Z,65.70
2018-02-21T18:05:55.114Z,65.10
2018-02-21T18:08:22.793Z,65.50
2018-02-21T18:10:50.370Z,65.10
2018-02-21T18:13:17.933Z,66.00
2018-02-21T18:15:46.260Z,65.10
2018-02-21T18:18:13.819Z,64.60
2018-02-21T18:20:41.386Z,66.70
2018-02-21T18:23:10.771Z,66.20
2018-02-21T18:25:38.349Z,65.70
2018-02-21T18:28:05.901Z,66.50
2018-02-21T18:30:33.490Z,75.90
2018-02-21T18:33:01.141Z,66.90
2018-02-21T18:35:28.711Z,63.20
2018-02-21T18:37:56.264Z,65.90
2018-02-21T18:40:23.810Z,66.50
2018-02-21T18:42:51.359Z,66.40
2018-02-21T18:45:18.960Z,66.50
2018-02-21T18:47:46.534Z,67.80
2018-02-21T18:50:14.166Z,67.00
2018-02-21T18:52:41.718Z,67.60
2018-02-21T18:55:09.396Z,66.60
2018-02-21T18:57:36.957Z,67.10
2018-02-21T19:00:04.507Z,68.60
2018-02-21T19:02:32.175Z,68.80
2018-02-21T19:04:59.722Z,67.50
2018-02-21T19:07:27.401Z,68.40
2018-02-21T19:09:54.966Z,67.70
2018-02-21T19:12:22.621Z,68.40
2018-02-21T19:14:50.162Z,68.90
2018-02-21T19:17:17.739Z,67.20
2018-02-21T19:19:45.303Z,67.90
2018-02-21T19:22:17.156Z,68.10
2018-02-21T19:24:44.695Z,69.40
2018-02-21T19:27:12.248Z,66.90
2018-02-21T19:29:39.797Z,74.60
2018-02-21T19:32:07.357Z,65.20
2018-02-21T19:34:34.941Z,66.30
2018-02-21T19:37:02.511Z,68.20
2018-02-21T19:39:30.105Z,69.00
2018-02-21T19:41:57.662Z,69.70
2018-02-21T19:44:25.235Z,69.30
2018-02-21T19:46:53.590Z,71.00
2018-02-21T19:49:21.131Z,70.10
2018-02-21T19:51:48.694Z,70.60
2018-02-21T19:54:16.363Z,70.10
2018-02-21T19:56:43.914Z,70.10
2018-02-21T19:59:11.594Z,69.80
2018-02-21T20:01:39.147Z,71.90
2018-02-21T20:04:06.971Z,71.50
2018-02-21T20:06:34.568Z,70.90
2018-02-21T20:09:02.136Z,71.90
2018-02-21T20:11:29.694Z,71.00
2018-02-21T20:13:57.254Z,70.20
2018-02-21T20:16:24.948Z,73.00
2018-02-21T20:18:53.395Z,66.90
2018-02-21T20:21:20.955Z,66.90
2018-02-21T20:23:48.519Z,69.50
2018-02-21T20:26:16.105Z,71.10
2018-02-21T20:28:45.179Z,72.70
2018-02-21T20:31:12.735Z,72.70
2018-02-21T20:33:40.298Z,73.80
2018-02-21T20:36:07.958Z,73.60
2018-02-21T20:38:35.605Z,83.30
2018-02-21T20:41:03.176Z,71.40
2018-02-21T20:43:30.753Z,74.20
2018-02-21T20:45:58.313Z,73.90
2018-02-21T20:48:25.880Z,72.80
2018-02-21T20:50:53.465Z,73.90
2018-02-21T20:53:21.037Z,75.50
2018-02-21T20:55:48.580Z,75.40
2018-02-21T20:58:16.909Z,76.80
2018-02-21T21:00:44.596Z,76.70
2018-02-21T21:03:13.681Z,73.60
2018-02-21T21:05:41.237Z,73.40
2018-02-21T21:08:08.780Z,74.90
2018-02-21T21:10:36.321Z,73.40
2018-02-21T21:13:03.873Z,75.60
2018-02-21T21:15:31.431Z,75.00
2018-02-21T21:17:59.000Z,75.80
2018-02-21T21:20:26.574Z,71.30
2018-02-21T21:22:54.125Z,73.30
2018-02-21T21:25:21.674Z,75.40
2018-02-21T21:27:49.236Z,76.60
2018-02-21T21:30:16.834Z,76.60
2018-02-21T21:32:44.373Z,75.70
2018-02-21T21:35:11.933Z,77.90
2018-02-21T21:37:39.478Z,76.40
2018-02-21T21:40:07.029Z,77.10
2018-02-21T21:42:34.591Z,77.90
2018-02-21T21:45:02.150Z,79.50
2018-02-21T21:47:29.685Z,76.70
2018-02-21T21:49:57.229Z,75.60
2018-02-21T21:52:24.876Z,76.30
2018-02-21T21:54:52.412Z,78.00
2018-02-21T21:57:19.964Z,77.50
2018-02-21T21:59:47.510Z,78.40
2018-02-21T22:02:15.116Z,87.60
2018-02-21T22:04:42.762Z,75.10
2018-02-21T22:07:10.305Z,78.00
2018-02-21T22:09:37.856Z,77.00
2018-02-21T22:12:05.416Z,76.50
2018-02-21T22:14:32.956Z,74.00
2018-02-21T22:17:01.260Z,74.00
2018-02-21T22:19:28.819Z,74.00
2018-02-21T22:21:56.366Z,82.50
2018-02-21T22:24:24.671Z,77.10
2018-02-21T22:26:52.232Z,77.20
2018-02-21T22:29:19.776Z,78.80
2018-02-21T22:31:47.324Z,82.00
2018-02-21T22:34:15.671Z,75.90
2018-02-21T22:36:43.229Z,75.70
2018-02-21T22:39:10.773Z,74.40
2018-02-21T22:41:38.434Z,90.30
2018-02-21T22:44:06.098Z,77.50
2018-02-21T22:46:33.754Z,72.00
2018-02-21T22:49:01.301Z,76.90
2018-02-21T22:51:28.870Z,79.00
2018-02-21T22:53:56.422Z,96.40
2018-02-21T22:56:23.986Z,77.10
2018-02-21T22:58:51.553Z,72.40
2018-02-21T23:01:19.104Z,75.40
2018-02-21T23:03:46.795Z,75.90
2018-02-21T23:06:14.355Z,77.80
2018-02-21T23:08:41.912Z,81.70
2018-02-21T23:11:09.482Z,82.60
2018-02-21T23:13:37.048Z,83.70
2018-02-21T23:16:04.676Z,83.90
2018-02-21T23:18:32.251Z,84.60
2018-02-21T23:20:59.896Z,84.40
2018-02-21T23:23:27.448Z,84.30
2018-02-21T23:25:55.036Z,84.00
2018-02-21T23:28:22.684Z,83.60
2018-02-21T23:30:50.342Z,84.10
2018-02-21T23:33:17.910Z,84.40
2018-02-21T23:35:45.461Z,84.10
2018-02-21T23:38:13.022Z,83.80
2018-02-21T23:40:40.596Z,85.20
2018-02-21T23:43:08.909Z,84.30
2018-02-21T23:45:37.241Z,85.50
2018-02-21T23:48:04.809Z,85.60
2018-02-21T23:50:32.357Z,84.20
2018-02-21T23:52:59.906Z,84.30
2018-02-21T23:55:27.487Z,83.80
2018-02-21T23:57:55.033Z,84.40
